This is the latest recevied weather packets stored in our database for station/object N1OTX. If no packets are shown the sender has not sent any weather packets the latest 10 day(s).
| Time | Temp. | Humidity | Pressure | Rain* | Wind** | Luminosity | Snow |
|---|---|---|---|---|---|---|---|
| 1778198728 | 12.78° C | 44% | 1006.7 hPa | 0 mm | - | 1 W/m² | - |
| 1778198170 | 13.33° C | 40% | 1006.6 hPa | 0 mm | - | 2 W/m² | - |
| 1778194828 | 15° C | 32% | 1006.1 hPa | 0 mm | - | 23 W/m² | - |
| 1778193328 | 15.56° C | 33% | 1005.8 hPa | 0 mm | - | 31 W/m² | - |
| 1778192127 | 15.56° C | 31% | 1005.7 hPa | 0 mm | - | 35 W/m² | - |
| 1778191829 | 15.56° C | 31% | 1005.5 hPa | 0 mm | - | 34 W/m² | - |
| 1778190928 | 15.56° C | 31% | 1005.5 hPa | 0 mm | - | 36 W/m² | - |
| 1778190028 | 16.11° C | 31% | 1005.3 hPa | 0 mm | - | 44 W/m² | - |
| 1778188527 | 16.67° C | 30% | 1005.2 hPa | 0 mm | - | 186 W/m² | - |
| 1778187329 | 16.67° C | 30% | 1005.1 hPa | 0 mm | - | 361 W/m² | - |
| 1778186729 | 16.67° C | 30% | 1005.1 hPa | 0 mm | - | 395 W/m² | - |
| 1778186129 | 16.67° C | 32% | 1005.1 hPa | 0 mm | - | 432 W/m² | - |
| 1778184628 | 17.22° C | 33% | 1005.1 hPa | 0 mm | - | 507 W/m² | - |
| 1778182529 | 17.78° C | 30% | 1005.6 hPa | 0 mm | - | 604 W/m² | - |
| 1778181928 | 17.22° C | 30% | 1005.6 hPa | 0 mm | - | 631 W/m² | - |
| 1778181628 | 17.78° C | 29% | 1005.6 hPa | 0 mm | - | 643 W/m² | - |
| 1778179829 | 17.78° C | 28% | 1005.8 hPa | 0 mm | - | 712 W/m² | - |
| 1778179229 | 17.78° C | 29% | 1005.9 hPa | 0 mm | - | 732 W/m² | - |
| 1778175047 | 17.78° C | 36% | 1006.2 hPa | 0 mm | - | 831 W/m² | - |
| 1778172328 | 16.67° C | 44% | 1006.5 hPa | 0 mm | - | 877 W/m² | - |
| 1778171428 | 16.11° C | 44% | 1006.9 hPa | 0 mm | - | 889 W/m² | - |
| 1778170827 | 16.67° C | 46% | 1006.8 hPa | 0 mm | - | 825 W/m² | - |
| 1778168148 | 14.44° C | 57% | 1007.2 hPa | 0 mm | - | 667 W/m² | - |
| 1778166948 | 14.44° C | 58% | 1007.4 hPa | 0 mm | - | 457 W/m² | - |
| 1778166328 | 15° C | 55% | 1007.4 hPa | 0 mm | - | 353 W/m² | - |
* Rain latest hour (hover to see other rain measurements)
** Current wind speed in m/s (hover to see current wind gust speed)